createdAt,value
2018-02-24T00:00:35.544Z,0
2018-02-24T00:01:16.113Z,0
2018-02-24T00:01:56.661Z,0
2018-02-24T00:02:37.184Z,0
2018-02-24T00:03:17.792Z,0
2018-02-24T00:03:58.277Z,0
2018-02-24T00:04:38.817Z,0
2018-02-24T00:05:19.381Z,0
2018-02-24T00:05:59.940Z,0
2018-02-24T00:06:40.552Z,0
2018-02-24T00:07:21.191Z,0
2018-02-24T00:08:01.701Z,0
2018-02-24T00:08:42.275Z,0
2018-02-24T00:09:22.854Z,0
2018-02-24T00:10:03.399Z,0
2018-02-24T00:10:43.931Z,0
2018-02-24T00:11:24.502Z,0
2018-02-24T00:12:05.174Z,0
2018-02-24T00:12:45.680Z,0
2018-02-24T00:13:26.232Z,0
2018-02-24T00:14:06.800Z,0
2018-02-24T00:14:47.349Z,0
2018-02-24T00:15:28.116Z,0
2018-02-24T00:16:08.662Z,0
2018-02-24T00:16:49.224Z,0
2018-02-24T00:17:29.764Z,0
2018-02-24T00:18:10.320Z,0
2018-02-24T00:18:50.862Z,0
2018-02-24T00:19:31.415Z,0
2018-02-24T00:20:12.007Z,0
2018-02-24T00:20:52.579Z,0
2018-02-24T00:21:33.092Z,0
2018-02-24T00:22:13.648Z,0
2018-02-24T00:22:54.172Z,0
2018-02-24T00:23:34.740Z,0
2018-02-24T00:24:15.278Z,0
2018-02-24T00:24:55.901Z,0
2018-02-24T00:25:36.476Z,0
2018-02-24T00:26:17.076Z,0
2018-02-24T00:26:57.625Z,0
2018-02-24T00:27:38.197Z,0
2018-02-24T00:28:18.735Z,0
2018-02-24T00:28:59.347Z,0
2018-02-24T00:29:39.974Z,0
2018-02-24T00:30:20.554Z,0
2018-02-24T00:31:01.291Z,0
2018-02-24T00:31:41.838Z,0
2018-02-24T00:32:22.385Z,0
2018-02-24T00:33:02.924Z,0
2018-02-24T00:33:43.525Z,0
2018-02-24T00:34:24.041Z,0
2018-02-24T00:35:04.582Z,0
2018-02-24T00:35:45.224Z,0
2018-02-24T00:36:25.767Z,0
2018-02-24T00:37:06.314Z,0
2018-02-24T00:37:46.868Z,0
2018-02-24T00:38:27.418Z,0
2018-02-24T00:39:07.966Z,0
2018-02-24T00:39:48.516Z,0
2018-02-24T00:40:29.074Z,0
2018-02-24T00:41:09.640Z,0
2018-02-24T00:41:50.197Z,0
2018-02-24T00:42:30.742Z,0
2018-02-24T00:43:11.311Z,0
2018-02-24T00:43:51.866Z,0
2018-02-24T00:44:32.481Z,0
2018-02-24T00:45:13.002Z,0
2018-02-24T00:45:53.527Z,0
2018-02-24T00:46:34.068Z,0
2018-02-24T00:47:14.618Z,0
2018-02-24T00:47:55.207Z,0
2018-02-24T00:48:35.759Z,0
2018-02-24T00:49:16.301Z,0
2018-02-24T00:49:56.830Z,0
2018-02-24T00:50:37.396Z,0
2018-02-24T00:51:17.950Z,0
2018-02-24T00:51:58.514Z,0
2018-02-24T00:52:39.053Z,0
2018-02-24T00:53:19.576Z,0
2018-02-24T00:54:00.128Z,0
2018-02-24T00:54:40.696Z,0
2018-02-24T00:55:21.503Z,0
2018-02-24T00:56:01.985Z,0
2018-02-24T00:56:42.547Z,0
2018-02-24T00:57:23.136Z,0
2018-02-24T00:58:03.678Z,0
2018-02-24T00:58:44.207Z,0
2018-02-24T00:59:24.759Z,0
2018-02-24T01:00:05.346Z,0
2018-02-24T01:00:45.904Z,0
2018-02-24T01:01:26.432Z,0
2018-02-24T01:02:06.980Z,0
2018-02-24T01:02:47.581Z,0
2018-02-24T01:03:28.109Z,0
2018-02-24T01:04:08.653Z,0
2018-02-24T01:04:49.205Z,0
2018-02-24T01:05:29.745Z,0
2018-02-24T01:06:10.300Z,0
2018-02-24T01:06:50.890Z,0
2018-02-24T01:07:31.432Z,0
2018-02-24T01:08:11.987Z,0
2018-02-24T01:08:52.554Z,0
2018-02-24T01:09:33.103Z,0
2018-02-24T01:10:13.643Z,0
2018-02-24T01:10:54.182Z,0
2018-02-24T01:11:34.735Z,0
2018-02-24T01:12:15.361Z,0
2018-02-24T01:12:55.926Z,0
2018-02-24T01:13:36.494Z,0
2018-02-24T01:14:17.051Z,0
2018-02-24T01:14:57.596Z,0
2018-02-24T01:15:38.245Z,0
2018-02-24T01:16:18.745Z,0
2018-02-24T01:16:59.306Z,0
2018-02-24T01:17:39.842Z,0
2018-02-24T01:18:20.441Z,0
2018-02-24T01:19:00.971Z,0
2018-02-24T01:19:41.549Z,0
2018-02-24T01:20:22.104Z,0
2018-02-24T01:21:02.639Z,0
2018-02-24T01:21:43.207Z,0
2018-02-24T01:22:23.799Z,0
2018-02-24T01:23:04.337Z,0
2018-02-24T01:23:44.919Z,0
2018-02-24T01:24:25.437Z,0
2018-02-24T01:25:05.987Z,0
2018-02-24T01:25:46.625Z,0
2018-02-24T01:26:27.187Z,0
2018-02-24T01:27:07.755Z,0
2018-02-24T01:27:48.304Z,0
2018-02-24T01:28:28.873Z,0
2018-02-24T01:29:09.458Z,0
2018-02-24T01:29:50.026Z,0
2018-02-24T01:30:30.564Z,0
2018-02-24T01:31:11.111Z,0
2018-02-24T01:31:51.656Z,0
2018-02-24T01:32:32.204Z,0
2018-02-24T01:33:12.766Z,0
2018-02-24T01:33:53.296Z,0
2018-02-24T01:34:33.841Z,0
2018-02-24T01:35:14.393Z,0
2018-02-24T01:35:55.013Z,0
2018-02-24T01:36:35.551Z,0
2018-02-24T01:37:16.169Z,0
2018-02-24T01:37:56.704Z,0
2018-02-24T01:38:37.277Z,0
2018-02-24T01:39:17.825Z,0
2018-02-24T01:39:58.369Z,0
2018-02-24T01:40:38.932Z,0
2018-02-24T01:41:19.498Z,0
2018-02-24T01:42:00.058Z,0
2018-02-24T01:42:40.632Z,0
2018-02-24T01:43:21.201Z,0
2018-02-24T01:44:01.746Z,0
2018-02-24T01:44:42.290Z,0
2018-02-24T01:45:22.838Z,0
2018-02-24T01:46:03.389Z,0
2018-02-24T01:46:43.946Z,0
2018-02-24T01:47:24.486Z,0
2018-02-24T01:48:05.065Z,0
2018-02-24T01:48:45.609Z,0
2018-02-24T01:49:26.118Z,0
2018-02-24T01:50:06.673Z,0
2018-02-24T01:50:47.278Z,0
2018-02-24T01:51:27.815Z,0
2018-02-24T01:52:08.344Z,0
2018-02-24T01:52:48.892Z,0
2018-02-24T01:53:29.434Z,0
2018-02-24T01:54:10.006Z,0
2018-02-24T01:54:50.576Z,0
2018-02-24T01:55:31.140Z,0
2018-02-24T01:56:11.715Z,0
2018-02-24T01:56:52.207Z,0
2018-02-24T01:57:32.738Z,0
2018-02-24T01:58:13.275Z,0
2018-02-24T01:58:53.805Z,0
2018-02-24T01:59:34.371Z,0
2018-02-24T02:00:14.918Z,0
2018-02-24T02:00:55.502Z,0
2018-02-24T02:01:36.083Z,0
2018-02-24T02:02:16.649Z,0
2018-02-24T02:02:57.170Z,0
2018-02-24T02:03:37.718Z,0
2018-02-24T02:04:18.258Z,0
2018-02-24T02:04:58.819Z,0
2018-02-24T02:05:39.381Z,0
2018-02-24T02:06:19.943Z,0
2018-02-24T02:07:00.489Z,0
2018-02-24T02:07:41.080Z,0
2018-02-24T02:08:21.586Z,0
2018-02-24T02:09:02.127Z,0
2018-02-24T02:09:42.676Z,0
2018-02-24T02:10:23.232Z,0
2018-02-24T02:11:03.796Z,0
2018-02-24T02:11:44.338Z,0
2018-02-24T02:12:24.903Z,0
2018-02-24T02:13:05.447Z,0
2018-02-24T02:13:45.987Z,0
2018-02-24T02:14:26.585Z,0
2018-02-24T02:15:07.157Z,0
2018-02-24T02:15:47.755Z,0
2018-02-24T02:16:28.314Z,0
2018-02-24T02:17:08.877Z,0
2018-02-24T02:17:49.466Z,0
2018-02-24T02:18:30.027Z,0
2018-02-24T02:19:10.575Z,0
2018-02-24T02:19:51.205Z,0
2018-02-24T02:20:31.689Z,0
2018-02-24T02:21:12.240Z,0
2018-02-24T02:21:52.795Z,0
2018-02-24T02:22:33.351Z,0
2018-02-24T02:23:13.911Z,0
2018-02-24T02:23:54.469Z,0
2018-02-24T02:24:35.038Z,0
2018-02-24T02:25:15.574Z,0
2018-02-24T02:25:56.132Z,0
2018-02-24T02:26:36.730Z,0
2018-02-24T02:27:17.304Z,0
2018-02-24T02:27:57.829Z,0
2018-02-24T02:28:38.401Z,0
2018-02-24T02:29:18.987Z,0
2018-02-24T02:29:59.528Z,0
2018-02-24T02:30:40.132Z,0
2018-02-24T02:31:20.749Z,0
2018-02-24T02:32:01.319Z,0
2018-02-24T02:32:41.887Z,0
2018-02-24T02:33:22.454Z,0
2018-02-24T02:34:03.043Z,0
2018-02-24T02:34:43.588Z,0
2018-02-24T02:35:24.135Z,0
2018-02-24T02:36:04.714Z,0
2018-02-24T02:36:45.273Z,0
2018-02-24T02:37:25.797Z,0
2018-02-24T02:38:06.385Z,0
2018-02-24T02:38:46.929Z,0
2018-02-24T02:39:27.482Z,0
2018-02-24T02:40:08.005Z,0
2018-02-24T02:40:48.626Z,0
2018-02-24T02:41:29.157Z,0
2018-02-24T02:42:09.722Z,0
2018-02-24T02:42:50.288Z,0
2018-02-24T02:43:30.833Z,0
2018-02-24T02:44:11.498Z,0
2018-02-24T02:44:52.051Z,0
2018-02-24T02:45:32.594Z,0
2018-02-24T02:46:13.179Z,0
2018-02-24T02:46:53.775Z,0
2018-02-24T02:47:34.345Z,0
2018-02-24T02:48:14.898Z,0
2018-02-24T02:48:55.512Z,0
2018-02-24T02:49:36.142Z,0
2018-02-24T02:50:16.688Z,0
2018-02-24T02:50:57.268Z,0
2018-02-24T02:51:37.793Z,0
2018-02-24T02:52:18.348Z,0
2018-02-24T02:52:58.956Z,0
2018-02-24T02:53:39.473Z,0
2018-02-24T02:54:20.074Z,0
2018-02-24T02:55:00.624Z,0
2018-02-24T02:55:41.223Z,0
2018-02-24T02:56:21.792Z,0
2018-02-24T02:57:02.360Z,0
2018-02-24T02:57:42.886Z,0
2018-02-24T02:58:23.463Z,0
2018-02-24T02:59:04.022Z,0
2018-02-24T02:59:44.567Z,0
2018-02-24T03:00:25.104Z,0
2018-02-24T03:01:05.648Z,0
2018-02-24T03:01:46.225Z,0
2018-02-24T03:02:26.781Z,0
2018-02-24T03:03:07.354Z,0
2018-02-24T03:03:47.919Z,0
2018-02-24T03:04:28.480Z,0
2018-02-24T03:05:09.036Z,0
2018-02-24T03:05:49.567Z,0
2018-02-24T03:06:30.158Z,0
2018-02-24T03:07:10.724Z,0
2018-02-24T03:07:51.308Z,0
2018-02-24T03:08:31.844Z,0
2018-02-24T03:09:12.393Z,0
2018-02-24T03:09:52.948Z,0
2018-02-24T03:10:33.505Z,0
2018-02-24T03:11:14.039Z,0
2018-02-24T03:11:54.571Z,0
2018-02-24T03:12:35.112Z,0
2018-02-24T03:13:15.776Z,0
2018-02-24T03:13:56.321Z,0
2018-02-24T03:14:36.863Z,0
2018-02-24T03:15:17.391Z,0
2018-02-24T03:15:57.950Z,0
2018-02-24T03:16:38.498Z,0
2018-02-24T03:17:19.077Z,0
2018-02-24T03:17:59.616Z,0
2018-02-24T03:18:40.191Z,0
2018-02-24T03:19:20.716Z,0
2018-02-24T03:20:01.273Z,0
2018-02-24T03:20:41.869Z,0
2018-02-24T03:21:22.428Z,0
2018-02-24T03:22:03.009Z,0
2018-02-24T03:22:43.518Z,0
2018-02-24T03:23:24.069Z,0
2018-02-24T03:24:04.629Z,0
2018-02-24T03:24:45.209Z,0
2018-02-24T03:25:25.761Z,0
2018-02-24T03:26:06.296Z,0
2018-02-24T03:26:46.851Z,0
2018-02-24T03:27:27.406Z,0
2018-02-24T03:28:07.957Z,0
2018-02-24T03:28:48.504Z,0
2018-02-24T03:29:29.064Z,0
2018-02-24T03:30:09.632Z,0
2018-02-24T03:30:50.253Z,0
2018-02-24T03:31:30.879Z,0
2018-02-24T03:32:11.376Z,0
2018-02-24T03:32:51.928Z,0
2018-02-24T03:33:32.495Z,0
2018-02-24T03:34:13.016Z,0
2018-02-24T03:34:53.586Z,0
2018-02-24T03:35:34.140Z,0
2018-02-24T03:36:14.669Z,0
2018-02-24T03:36:55.218Z,0
2018-02-24T03:37:35.764Z,0
2018-02-24T03:40:08.932Z,0
2018-02-24T03:40:49.447Z,0
2018-02-24T03:41:30.000Z,0
2018-02-24T03:42:10.544Z,0
2018-02-24T03:42:51.112Z,0
2018-02-24T03:43:31.633Z,0
2018-02-24T03:44:12.207Z,0
2018-02-24T03:44:52.776Z,0
2018-02-24T03:45:33.317Z,0
2018-02-24T03:46:13.886Z,0
2018-02-24T03:46:54.431Z,0
2018-02-24T03:47:34.999Z,0
2018-02-24T03:48:15.554Z,0
2018-02-24T03:48:56.084Z,0
2018-02-24T03:49:36.632Z,0
2018-02-24T03:50:17.238Z,0
2018-02-24T03:50:57.800Z,0
2018-02-24T03:51:38.337Z,0
2018-02-24T03:52:18.911Z,0
2018-02-24T03:52:59.467Z,0
2018-02-24T03:53:40.038Z,0
2018-02-24T03:54:20.628Z,0
2018-02-24T03:55:01.190Z,0
2018-02-24T03:55:41.736Z,0
2018-02-24T03:56:22.304Z,0
2018-02-24T03:57:02.866Z,0
2018-02-24T03:57:43.414Z,0
2018-02-24T03:58:23.985Z,0
2018-02-24T03:59:04.535Z,0
2018-02-24T03:59:45.109Z,0
2018-02-24T04:00:25.656Z,0
2018-02-24T04:01:06.226Z,0
2018-02-24T04:01:46.822Z,0
2018-02-24T04:02:27.391Z,0
2018-02-24T04:03:07.947Z,0
2018-02-24T04:03:48.490Z,0
2018-02-24T04:04:29.076Z,0
2018-02-24T04:05:09.617Z,0
2018-02-24T04:05:50.196Z,0
2018-02-24T04:06:30.746Z,0
2018-02-24T04:07:11.301Z,0
2018-02-24T04:07:51.852Z,0
2018-02-24T04:08:32.407Z,0
2018-02-24T04:09:12.970Z,0
2018-02-24T04:09:53.522Z,0
2018-02-24T04:10:34.129Z,0
2018-02-24T04:11:14.685Z,0
2018-02-24T04:11:55.239Z,0
2018-02-24T04:12:35.755Z,0
2018-02-24T04:13:16.314Z,0
2018-02-24T04:13:56.869Z,0
2018-02-24T04:14:37.391Z,0
2018-02-24T04:15:17.923Z,0
2018-02-24T04:15:58.468Z,0
2018-02-24T04:16:39.013Z,0
2018-02-24T04:17:19.564Z,0
2018-02-24T04:18:00.108Z,0
2018-02-24T04:18:40.660Z,0
2018-02-24T04:19:21.207Z,0
2018-02-24T04:20:01.815Z,0
2018-02-24T04:20:42.310Z,0
2018-02-24T04:21:22.869Z,0
2018-02-24T04:22:03.413Z,0
2018-02-24T04:22:43.992Z,0
2018-02-24T04:23:24.557Z,0
2018-02-24T04:24:05.119Z,0
2018-02-24T04:24:45.660Z,0
2018-02-24T04:25:26.220Z,0
2018-02-24T04:26:06.808Z,0
2018-02-24T04:26:47.336Z,0
2018-02-24T04:27:27.897Z,0
2018-02-24T04:28:08.431Z,0
2018-02-24T04:28:49.036Z,0
2018-02-24T04:29:29.557Z,0
2018-02-24T04:30:10.103Z,0
2018-02-24T04:30:50.630Z,0
2018-02-24T04:31:31.194Z,0
2018-02-24T04:32:11.810Z,0
2018-02-24T04:32:52.366Z,0
2018-02-24T04:33:32.877Z,0
2018-02-24T04:34:13.484Z,0
2018-02-24T04:34:54.047Z,0
2018-02-24T04:35:34.577Z,0
2018-02-24T04:36:15.205Z,0
2018-02-24T04:36:56.005Z,0
2018-02-24T04:37:36.578Z,0
2018-02-24T04:38:17.118Z,0
2018-02-24T04:38:57.698Z,0
2018-02-24T04:39:38.252Z,0
2018-02-24T04:40:18.822Z,0
2018-02-24T04:40:59.382Z,0
2018-02-24T04:41:39.926Z,0
2018-02-24T04:42:20.481Z,0
2018-02-24T04:43:01.042Z,0
2018-02-24T04:43:41.622Z,0
2018-02-24T04:44:22.176Z,0
2018-02-24T04:45:02.776Z,0
2018-02-24T04:45:43.342Z,0
2018-02-24T04:46:23.874Z,0
2018-02-24T04:47:04.493Z,0
2018-02-24T04:47:45.060Z,0
2018-02-24T04:48:25.584Z,0
2018-02-24T04:49:06.139Z,0
2018-02-24T04:49:46.694Z,0
2018-02-24T04:50:27.248Z,0
2018-02-24T04:51:07.803Z,0
2018-02-24T04:51:48.349Z,0
2018-02-24T04:52:28.903Z,0
2018-02-24T04:53:09.476Z,0
2018-02-24T04:53:50.000Z,0
2018-02-24T04:54:30.559Z,0
2018-02-24T04:55:11.135Z,0
2018-02-24T04:55:51.688Z,0
2018-02-24T04:56:32.256Z,0
2018-02-24T04:57:12.823Z,0
2018-02-24T04:57:53.358Z,0
2018-02-24T04:58:33.921Z,0
2018-02-24T04:59:14.461Z,0
2018-02-24T04:59:55.038Z,0
2018-02-24T05:00:35.580Z,0
2018-02-24T05:01:16.124Z,0
2018-02-24T05:01:56.678Z,0
2018-02-24T05:02:37.221Z,0
2018-02-24T05:03:17.757Z,0
2018-02-24T05:03:58.296Z,0
2018-02-24T05:04:38.837Z,0
2018-02-24T05:05:19.389Z,0
2018-02-24T05:05:59.956Z,0
2018-02-24T05:06:40.525Z,0
2018-02-24T05:07:21.086Z,0
2018-02-24T05:08:01.630Z,0
2018-02-24T05:08:42.263Z,0
2018-02-24T05:09:22.691Z,0
2018-02-24T05:10:03.257Z,0
2018-02-24T05:10:43.791Z,0
2018-02-24T05:11:24.377Z,0
2018-02-24T05:12:04.901Z,0
2018-02-24T05:12:45.476Z,0
2018-02-24T05:13:26.030Z,0
2018-02-24T05:14:06.673Z,0
2018-02-24T05:14:47.229Z,0
2018-02-24T05:15:27.775Z,0
2018-02-24T05:16:08.318Z,0
2018-02-24T05:16:48.918Z,0
2018-02-24T05:17:29.483Z,0
2018-02-24T05:18:10.022Z,0
2018-02-24T05:18:50.572Z,0
2018-02-24T05:19:31.112Z,0
2018-02-24T05:20:11.647Z,0
2018-02-24T05:20:52.170Z,0
2018-02-24T05:21:32.757Z,0
2018-02-24T05:22:13.315Z,0
2018-02-24T05:22:53.907Z,0
2018-02-24T05:23:34.449Z,0
2018-02-24T05:24:14.969Z,0
2018-02-24T05:24:55.611Z,0
2018-02-24T05:25:36.146Z,0
2018-02-24T05:26:16.709Z,0
2018-02-24T05:26:57.258Z,0
2018-02-24T05:27:37.846Z,0
2018-02-24T05:28:18.386Z,0
2018-02-24T05:28:58.961Z,0
2018-02-24T05:29:39.520Z,0
2018-02-24T05:30:20.092Z,0
2018-02-24T05:31:00.640Z,0
2018-02-24T05:31:41.225Z,0
2018-02-24T05:32:21.818Z,0
2018-02-24T05:33:02.381Z,0
2018-02-24T05:33:42.914Z,0
2018-02-24T05:34:23.506Z,0
2018-02-24T05:35:04.099Z,0
2018-02-24T05:35:44.667Z,0
2018-02-24T05:36:25.221Z,0
2018-02-24T05:37:05.789Z,0
2018-02-24T05:37:46.334Z,0
2018-02-24T05:38:26.914Z,0
2018-02-24T05:39:07.511Z,0
2018-02-24T05:39:48.152Z,0
2018-02-24T05:40:28.690Z,0
2018-02-24T05:41:09.504Z,0
2018-02-24T05:41:50.065Z,0
2018-02-24T05:42:30.690Z,0
2018-02-24T05:43:11.286Z,0
2018-02-24T05:43:51.884Z,0
2018-02-24T05:44:32.462Z,0
2018-02-24T05:45:13.101Z,0
2018-02-24T05:45:53.613Z,0
2018-02-24T05:46:34.237Z,0
2018-02-24T05:47:14.745Z,0
2018-02-24T05:47:55.322Z,0
2018-02-24T05:48:35.871Z,0
2018-02-24T05:49:16.402Z,0
2018-02-24T05:49:56.955Z,0
2018-02-24T05:50:37.504Z,0
2018-02-24T05:51:18.073Z,0
2018-02-24T05:51:58.622Z,0
2018-02-24T05:52:39.193Z,0
2018-02-24T05:53:19.748Z,0
2018-02-24T05:54:00.311Z,0
2018-02-24T05:54:40.913Z,0
2018-02-24T05:55:21.533Z,0
2018-02-24T05:56:02.103Z,0
2018-02-24T05:56:42.649Z,0
2018-02-24T05:57:23.202Z,0
2018-02-24T05:58:03.746Z,0
2018-02-24T05:58:44.316Z,0
2018-02-24T05:59:24.880Z,0
2018-02-24T06:00:05.437Z,0
2018-02-24T06:00:45.977Z,0
2018-02-24T06:01:26.514Z,0
2018-02-24T06:02:07.083Z,0
2018-02-24T06:02:47.645Z,5
2018-02-24T06:03:28.203Z,5
2018-02-24T06:04:08.753Z,5
2018-02-24T06:04:49.326Z,5
2018-02-24T06:05:30.832Z,5
2018-02-24T06:09:21.372Z,10
2018-02-24T06:10:01.929Z,10
2018-02-24T06:10:42.450Z,10
2018-02-24T06:11:22.996Z,10
2018-02-24T06:12:03.546Z,10
2018-02-24T06:12:44.120Z,10
2018-02-24T06:13:24.668Z,10
2018-02-24T06:14:05.201Z,10
2018-02-24T06:14:45.815Z,10
2018-02-24T06:15:26.371Z,15
2018-02-24T06:16:06.910Z,15
2018-02-24T06:16:47.500Z,15
2018-02-24T06:17:28.026Z,15
2018-02-24T06:18:08.599Z,15
2018-02-24T06:18:49.144Z,15
2018-02-24T06:19:29.689Z,15
2018-02-24T06:20:10.304Z,15
2018-02-24T06:20:50.842Z,15
2018-02-24T06:21:31.400Z,15
2018-02-24T06:22:11.932Z,15
2018-02-24T06:22:52.485Z,15
2018-02-24T06:23:33.022Z,20
2018-02-24T06:24:13.571Z,20
2018-02-24T06:24:54.155Z,20
2018-02-24T06:25:34.686Z,20
2018-02-24T06:26:15.329Z,20
2018-02-24T06:26:55.870Z,20
2018-02-24T06:27:36.599Z,20
2018-02-24T06:28:17.200Z,20
2018-02-24T06:28:57.842Z,25
2018-02-24T06:29:38.508Z,25
2018-02-24T06:30:19.228Z,25
2018-02-24T06:30:59.880Z,25
2018-02-24T06:31:40.440Z,25
2018-02-24T06:32:21.013Z,25
2018-02-24T06:33:01.809Z,30
2018-02-24T06:33:42.487Z,30
2018-02-24T06:34:23.049Z,30
2018-02-24T06:35:03.608Z,30
2018-02-24T06:35:44.194Z,30
2018-02-24T06:36:24.789Z,30
2018-02-24T06:37:05.369Z,30
2018-02-24T06:37:45.911Z,35
2018-02-24T06:38:26.469Z,35
2018-02-24T06:39:07.071Z,35
2018-02-24T06:39:47.758Z,35
2018-02-24T06:40:28.316Z,35
2018-02-24T06:41:08.880Z,35
2018-02-24T06:41:49.467Z,35
2018-02-24T06:42:30.036Z,35
2018-02-24T06:43:10.612Z,35
2018-02-24T06:43:51.260Z,35
2018-02-24T06:44:31.842Z,35
2018-02-24T06:45:12.436Z,40
2018-02-24T06:45:53.038Z,40
2018-02-24T06:46:33.610Z,40
2018-02-24T06:47:14.183Z,40
2018-02-24T06:47:54.725Z,40
2018-02-24T06:48:35.288Z,40
2018-02-24T06:49:15.868Z,40
2018-02-24T06:49:56.493Z,45
2018-02-24T06:50:37.049Z,45
2018-02-24T06:51:17.646Z,45
2018-02-24T06:51:58.239Z,45
2018-02-24T06:52:38.820Z,45
2018-02-24T06:53:19.488Z,45
2018-02-24T06:54:00.026Z,45
2018-02-24T06:54:40.617Z,45
2018-02-24T06:55:21.218Z,45
2018-02-24T06:56:01.823Z,45
2018-02-24T06:56:42.373Z,45
2018-02-24T06:57:22.942Z,45
2018-02-24T06:58:03.566Z,45
2018-02-24T06:58:44.116Z,45
2018-02-24T06:59:24.657Z,45
2018-02-24T07:00:05.287Z,50
2018-02-24T07:00:45.839Z,50
2018-02-24T07:01:26.424Z,50
2018-02-24T07:02:06.977Z,50
2018-02-24T07:02:47.553Z,55
2018-02-24T07:03:28.120Z,55
2018-02-24T07:04:08.671Z,55
2018-02-24T07:04:49.236Z,55
2018-02-24T07:05:29.781Z,55
2018-02-24T07:06:10.360Z,55
2018-02-24T07:06:50.979Z,55
2018-02-24T07:07:31.555Z,60
2018-02-24T07:08:12.104Z,60
2018-02-24T07:08:52.680Z,60
2018-02-24T07:09:33.229Z,65
2018-02-24T07:10:13.834Z,65
2018-02-24T07:10:54.398Z,65
2018-02-24T07:11:34.955Z,65
2018-02-24T07:12:15.517Z,70
2018-02-24T07:12:56.149Z,70
2018-02-24T07:13:36.701Z,70
2018-02-24T07:14:17.303Z,75
2018-02-24T07:14:57.905Z,75
2018-02-24T07:15:38.467Z,80
2018-02-24T07:16:19.579Z,80
2018-02-24T07:17:00.199Z,75
2018-02-24T07:17:40.831Z,80
2018-02-24T07:18:21.349Z,80
2018-02-24T07:19:01.933Z,80
2018-02-24T07:19:42.497Z,80
2018-02-24T07:20:23.051Z,85
2018-02-24T07:21:03.948Z,85
2018-02-24T07:21:44.550Z,85
2018-02-24T07:22:25.146Z,85
2018-02-24T07:23:05.831Z,85
2018-02-24T07:23:47.630Z,85
2018-02-24T07:24:27.847Z,90
2018-02-24T07:25:08.844Z,90
2018-02-24T07:25:49.571Z,90
2018-02-24T07:26:30.151Z,90
2018-02-24T07:27:11.181Z,85
2018-02-24T07:27:51.942Z,90
2018-02-24T07:28:32.561Z,90
2018-02-24T07:29:13.187Z,90
2018-02-24T07:29:53.736Z,90
2018-02-24T07:30:34.337Z,85
2018-02-24T07:31:15.049Z,85
2018-02-24T07:31:55.642Z,85
2018-02-24T07:32:36.197Z,90
2018-02-24T07:33:16.779Z,90
2018-02-24T07:33:57.493Z,90
2018-02-24T07:34:38.396Z,85
2018-02-24T07:35:18.962Z,85
2018-02-24T07:35:59.580Z,80
2018-02-24T07:36:40.229Z,80
2018-02-24T07:37:20.819Z,80
2018-02-24T07:38:01.421Z,80
2018-02-24T07:38:41.991Z,85
2018-02-24T07:39:22.592Z,85
2018-02-24T07:40:03.181Z,85
2018-02-24T07:40:43.726Z,90
2018-02-24T07:41:24.267Z,90
2018-02-24T07:42:04.823Z,95
2018-02-24T07:42:45.511Z,95
2018-02-24T07:43:26.083Z,100
2018-02-24T07:44:06.812Z,100
2018-02-24T07:44:47.363Z,100
2018-02-24T07:45:27.929Z,100
2018-02-24T07:46:08.581Z,105
2018-02-24T07:46:49.239Z,105
2018-02-24T07:47:29.773Z,110
2018-02-24T07:48:10.305Z,115
2018-02-24T07:48:50.939Z,115
2018-02-24T07:49:31.667Z,120
2018-02-24T07:50:12.227Z,125
2018-02-24T07:50:52.828Z,120
2018-02-24T07:51:33.377Z,125
2018-02-24T07:52:13.889Z,125
2018-02-24T07:52:54.542Z,125
2018-02-24T07:53:35.051Z,125
2018-02-24T07:54:15.632Z,125
2018-02-24T07:54:56.311Z,125
2018-02-24T07:55:36.957Z,125
2018-02-24T07:56:17.547Z,125
2018-02-24T07:56:58.082Z,125
2018-02-24T07:57:38.640Z,130
2018-02-24T07:58:19.206Z,130
2018-02-24T07:58:59.747Z,135
2018-02-24T07:59:40.301Z,135
2018-02-24T08:00:20.894Z,140
2018-02-24T08:01:01.456Z,145
2018-02-24T08:01:41.987Z,180
2018-02-24T08:02:22.526Z,340
2018-02-24T08:03:03.098Z,605
2018-02-24T08:03:43.657Z,845
2018-02-24T08:04:24.220Z,895
2018-02-24T08:05:04.782Z,900
2018-02-24T08:05:45.364Z,1085
2018-02-24T08:06:25.927Z,1245
2018-02-24T08:07:06.474Z,1265
2018-02-24T08:07:47.076Z,1315
2018-02-24T08:08:27.642Z,1390
2018-02-24T08:09:08.195Z,1430
2018-02-24T08:09:48.767Z,1570
2018-02-24T08:10:29.331Z,1615
2018-02-24T08:11:09.930Z,1600
2018-02-24T08:11:50.454Z,1590
2018-02-24T08:12:31.070Z,1545
2018-02-24T08:13:11.596Z,1425
2018-02-24T08:13:52.144Z,1390
2018-02-24T08:14:32.736Z,1380
2018-02-24T08:15:13.271Z,1465
2018-02-24T08:15:53.815Z,1480
2018-02-24T08:16:34.373Z,1625
2018-02-24T08:17:15.006Z,1665
2018-02-24T08:17:55.571Z,1750
2018-02-24T08:18:36.140Z,1785
2018-02-24T08:19:16.750Z,1765
2018-02-24T08:19:58.127Z,1650
2018-02-24T08:20:37.894Z,1660
2018-02-24T08:21:18.440Z,1635
2018-02-24T08:21:58.993Z,1790
2018-02-24T08:22:39.567Z,1735
2018-02-24T08:23:20.122Z,1325
2018-02-24T08:24:00.699Z,1175
2018-02-24T08:24:41.256Z,1185
2018-02-24T08:25:21.857Z,1015
2018-02-24T08:26:02.375Z,750
2018-02-24T08:26:42.941Z,695
2018-02-24T08:27:23.592Z,505
2018-02-24T08:28:04.146Z,485
2018-02-24T08:28:44.714Z,590
2018-02-24T08:29:25.328Z,530
2018-02-24T08:30:05.877Z,655
2018-02-24T08:30:46.435Z,520
2018-02-24T08:31:27.051Z,550
2018-02-24T08:32:07.537Z,500
2018-02-24T08:32:48.153Z,550
2018-02-24T08:33:28.698Z,510
2018-02-24T08:34:09.279Z,590
2018-02-24T08:34:49.893Z,560
2018-02-24T08:35:30.511Z,240
2018-02-24T08:36:11.064Z,365
2018-02-24T08:36:51.610Z,400
2018-02-24T08:37:32.188Z,510
2018-02-24T08:38:12.808Z,430
2018-02-24T08:38:53.366Z,515
2018-02-24T08:39:34.018Z,655
2018-02-24T08:40:14.549Z,620
2018-02-24T08:40:55.120Z,335
2018-02-24T08:41:35.688Z,1030
2018-02-24T08:42:16.301Z,315
2018-02-24T08:42:56.873Z,505
2018-02-24T08:43:37.443Z,1135
2018-02-24T08:44:18.058Z,970
2018-02-24T08:44:58.604Z,845
2018-02-24T08:45:39.162Z,900
2018-02-24T08:46:19.743Z,1120
2018-02-24T08:47:00.332Z,1045
2018-02-24T08:47:40.992Z,1155
2018-02-24T08:48:21.575Z,1315
2018-02-24T08:49:02.125Z,1335
2018-02-24T08:49:42.756Z,1330
2018-02-24T08:50:23.363Z,1410
2018-02-24T08:51:03.903Z,1355
2018-02-24T08:51:44.458Z,1485
2018-02-24T08:52:25.065Z,1515
2018-02-24T08:53:05.636Z,1305
2018-02-24T08:53:46.279Z,1685
2018-02-24T08:54:26.845Z,1740
2018-02-24T08:55:07.430Z,1650
2018-02-24T08:55:47.979Z,1595
2018-02-24T08:56:28.591Z,185
2018-02-24T08:57:09.183Z,1690
2018-02-24T08:57:49.730Z,1630
2018-02-24T08:58:30.318Z,1555
2018-02-24T08:59:10.859Z,1445
2018-02-24T08:59:51.424Z,1475
2018-02-24T09:00:31.998Z,1465
2018-02-24T09:01:12.607Z,1125
2018-02-24T09:01:53.162Z,940
2018-02-24T09:02:33.730Z,940
2018-02-24T09:03:14.308Z,705
2018-02-24T09:03:54.846Z,560
2018-02-24T09:04:35.497Z,500
2018-02-24T09:05:16.039Z,455
2018-02-24T09:05:56.614Z,455
2018-02-24T09:06:37.172Z,435
2018-02-24T09:07:17.726Z,430
2018-02-24T09:07:58.354Z,450
2018-02-24T09:08:38.913Z,390
2018-02-24T09:09:19.490Z,385
2018-02-24T09:10:00.062Z,380
2018-02-24T09:10:40.665Z,380
2018-02-24T09:11:21.269Z,380
2018-02-24T09:12:01.759Z,380
2018-02-24T09:12:42.471Z,165
2018-02-24T09:13:23.457Z,345
2018-02-24T09:14:04.071Z,155
2018-02-24T09:14:44.649Z,305
2018-02-24T09:15:25.231Z,135
2018-02-24T09:16:05.807Z,125
2018-02-24T09:16:46.360Z,140
2018-02-24T09:17:26.910Z,275
2018-02-24T09:18:07.478Z,295
2018-02-24T09:18:48.124Z,125
2018-02-24T09:19:28.665Z,120
2018-02-24T09:20:09.306Z,110
2018-02-24T09:20:49.879Z,230
2018-02-24T09:21:30.541Z,245
2018-02-24T09:22:11.336Z,245
2018-02-24T09:22:51.924Z,130
2018-02-24T09:23:32.553Z,120
2018-02-24T09:24:13.125Z,155
2018-02-24T09:24:53.675Z,125
2018-02-24T09:25:34.257Z,140
2018-02-24T09:26:14.977Z,245
2018-02-24T09:26:55.553Z,145
2018-02-24T09:27:36.106Z,155
2018-02-24T09:28:17.076Z,235
2018-02-24T09:28:58.250Z,160
2018-02-24T09:29:38.973Z,160
2018-02-24T09:30:19.576Z,240
2018-02-24T09:31:00.144Z,215
2018-02-24T09:31:41.794Z,185
2018-02-24T09:32:22.966Z,195
2018-02-24T09:33:03.664Z,170
2018-02-24T09:33:44.215Z,155
2018-02-24T09:34:24.756Z,150
2018-02-24T09:35:05.361Z,150
2018-02-24T09:35:45.930Z,155
2018-02-24T09:36:26.640Z,150
2018-02-24T09:37:07.455Z,155
2018-02-24T09:37:48.293Z,160
2018-02-24T09:38:29.279Z,170
2018-02-24T09:39:10.302Z,170
2018-02-24T09:39:51.507Z,170
2018-02-24T09:40:32.105Z,165
2018-02-24T09:41:12.655Z,160
2018-02-24T09:41:53.210Z,170
2018-02-24T09:42:33.764Z,175
2018-02-24T09:43:14.385Z,180
2018-02-24T09:43:54.876Z,175
2018-02-24T09:44:35.456Z,165
2018-02-24T09:45:16.030Z,165
2018-02-24T09:45:56.574Z,130
2018-02-24T09:46:37.135Z,125
2018-02-24T09:47:17.697Z,170
2018-02-24T09:47:58.277Z,170
2018-02-24T09:48:38.863Z,165
2018-02-24T09:49:19.482Z,125
2018-02-24T09:50:00.077Z,120
2018-02-24T09:50:40.854Z,150
2018-02-24T09:51:21.684Z,135